sensor_id;sensor_type;location;lat;lon;timestamp;P1;durP1;ratioP1;P2;durP2;ratioP2
18899;SDS011;9582;52.018;6.306;2023-04-28T00:00:35;5.43;;;4.30;;
18899;SDS011;9582;52.018;6.306;2023-04-28T00:03:01;4.90;;;4.10;;
18899;SDS011;9582;52.018;6.306;2023-04-28T00:05:28;7.97;;;5.00;;
18899;SDS011;9582;52.018;6.306;2023-04-28T00:07:55;6.13;;;4.27;;
18899;SDS011;9582;52.018;6.306;2023-04-28T00:10:21;7.27;;;5.00;;
18899;SDS011;9582;52.018;6.306;2023-04-28T00:12:47;5.37;;;4.23;;
18899;SDS011;9582;52.018;6.306;2023-04-28T00:15:15;7.77;;;3.97;;
18899;SDS011;9582;52.018;6.306;2023-04-28T00:17:42;7.23;;;4.37;;
18899;SDS011;9582;52.018;6.306;2023-04-28T00:20:09;5.90;;;4.63;;
18899;SDS011;9582;52.018;6.306;2023-04-28T00:22:36;7.03;;;4.30;;
18899;SDS011;9582;52.018;6.306;2023-04-28T00:25:03;5.47;;;4.10;;
18899;SDS011;9582;52.018;6.306;2023-04-28T00:27:31;6.40;;;4.43;;
18899;SDS011;9582;52.018;6.306;2023-04-28T00:29:58;6.87;;;4.20;;
18899;SDS011;9582;52.018;6.306;2023-04-28T00:32:26;7.23;;;4.30;;
18899;SDS011;9582;52.018;6.306;2023-04-28T00:34:52;9.53;;;4.40;;
18899;SDS011;9582;52.018;6.306;2023-04-28T00:37:19;7.90;;;4.47;;
18899;SDS011;9582;52.018;6.306;2023-04-28T00:39:45;5.33;;;4.23;;
18899;SDS011;9582;52.018;6.306;2023-04-28T00:42:12;6.90;;;4.57;;
18899;SDS011;9582;52.018;6.306;2023-04-28T00:44:38;5.37;;;4.20;;
18899;SDS011;9582;52.018;6.306;2023-04-28T00:47:05;5.00;;;4.03;;
18899;SDS011;9582;52.018;6.306;2023-04-28T00:49:35;5.97;;;4.00;;
18899;SDS011;9582;52.018;6.306;2023-04-28T00:52:04;5.33;;;4.60;;
18899;SDS011;9582;52.018;6.306;2023-04-28T00:54:31;7.77;;;4.27;;
18899;SDS011;9582;52.018;6.306;2023-04-28T00:56:58;4.73;;;3.93;;
18899;SDS011;9582;52.018;6.306;2023-04-28T00:59:27;5.53;;;3.93;;
18899;SDS011;9582;52.018;6.306;2023-04-28T01:01:53;6.27;;;4.17;;
18899;SDS011;9582;52.018;6.306;2023-04-28T01:04:20;6.23;;;4.43;;
18899;SDS011;9582;52.018;6.306;2023-04-28T01:06:49;6.27;;;4.27;;
18899;SDS011;9582;52.018;6.306;2023-04-28T01:09:18;7.13;;;4.27;;
18899;SDS011;9582;52.018;6.306;2023-04-28T01:11:45;6.53;;;4.17;;
18899;SDS011;9582;52.018;6.306;2023-04-28T01:14:31;4.80;;;4.10;;
18899;SDS011;9582;52.018;6.306;2023-04-28T01:16:58;5.20;;;4.00;;
18899;SDS011;9582;52.018;6.306;2023-04-28T01:19:25;6.13;;;4.33;;
18899;SDS011;9582;52.018;6.306;2023-04-28T01:21:53;4.77;;;3.70;;
18899;SDS011;9582;52.018;6.306;2023-04-28T01:24:22;5.53;;;4.47;;
18899;SDS011;9582;52.018;6.306;2023-04-28T01:26:49;6.40;;;4.23;;
18899;SDS011;9582;52.018;6.306;2023-04-28T01:29:16;5.43;;;4.30;;
18899;SDS011;9582;52.018;6.306;2023-04-28T01:31:42;5.97;;;4.40;;
18899;SDS011;9582;52.018;6.306;2023-04-28T01:34:09;6.10;;;4.30;;
18899;SDS011;9582;52.018;6.306;2023-04-28T01:36:35;5.27;;;4.40;;
18899;SDS011;9582;52.018;6.306;2023-04-28T01:39:02;5.20;;;4.23;;
18899;SDS011;9582;52.018;6.306;2023-04-28T01:41:30;6.30;;;4.47;;
18899;SDS011;9582;52.018;6.306;2023-04-28T01:43:58;5.20;;;4.20;;
18899;SDS011;9582;52.018;6.306;2023-04-28T01:46:25;7.43;;;4.07;;
18899;SDS011;9582;52.018;6.306;2023-04-28T01:48:51;5.33;;;4.73;;
18899;SDS011;9582;52.018;6.306;2023-04-28T01:51:17;8.03;;;4.50;;
18899;SDS011;9582;52.018;6.306;2023-04-28T01:53:44;5.90;;;4.27;;
18899;SDS011;9582;52.018;6.306;2023-04-28T01:56:12;7.17;;;4.97;;
18899;SDS011;9582;52.018;6.306;2023-04-28T01:58:40;5.53;;;4.60;;
18899;SDS011;9582;52.018;6.306;2023-04-28T02:01:08;6.37;;;4.70;;
18899;SDS011;9582;52.018;6.306;2023-04-28T02:03:35;5.27;;;4.33;;
18899;SDS011;9582;52.018;6.306;2023-04-28T02:06:02;8.17;;;5.40;;
18899;SDS011;9582;52.018;6.306;2023-04-28T02:08:29;6.97;;;4.70;;
18899;SDS011;9582;52.018;6.306;2023-04-28T02:10:55;6.23;;;4.80;;
18899;SDS011;9582;52.018;6.306;2023-04-28T02:13:22;7.17;;;5.10;;
18899;SDS011;9582;52.018;6.306;2023-04-28T02:15:50;6.63;;;5.27;;
18899;SDS011;9582;52.018;6.306;2023-04-28T02:18:19;7.80;;;5.50;;
18899;SDS011;9582;52.018;6.306;2023-04-28T02:20:45;6.07;;;5.07;;
18899;SDS011;9582;52.018;6.306;2023-04-28T02:23:12;7.40;;;5.23;;
18899;SDS011;9582;52.018;6.306;2023-04-28T02:25:38;7.03;;;4.83;;
18899;SDS011;9582;52.018;6.306;2023-04-28T02:28:05;7.80;;;5.43;;
18899;SDS011;9582;52.018;6.306;2023-04-28T02:30:33;6.83;;;5.00;;
18899;SDS011;9582;52.018;6.306;2023-04-28T02:33:01;8.97;;;5.60;;
18899;SDS011;9582;52.018;6.306;2023-04-28T02:35:27;8.00;;;5.60;;
18899;SDS011;9582;52.018;6.306;2023-04-28T02:37:54;6.60;;;5.63;;
18899;SDS011;9582;52.018;6.306;2023-04-28T02:40:20;7.27;;;5.33;;
18899;SDS011;9582;52.018;6.306;2023-04-28T02:42:47;7.40;;;5.47;;
18899;SDS011;9582;52.018;6.306;2023-04-28T02:45:13;11.83;;;5.70;;
18899;SDS011;9582;52.018;6.306;2023-04-28T02:47:40;7.43;;;5.43;;
18899;SDS011;9582;52.018;6.306;2023-04-28T02:50:09;6.23;;;4.97;;
18899;SDS011;9582;52.018;6.306;2023-04-28T02:52:35;7.60;;;6.30;;
18899;SDS011;9582;52.018;6.306;2023-04-28T02:55:02;8.43;;;5.37;;
18899;SDS011;9582;52.018;6.306;2023-04-28T02:57:29;7.47;;;5.43;;
18899;SDS011;9582;52.018;6.306;2023-04-28T02:59:56;8.73;;;5.60;;
18899;SDS011;9582;52.018;6.306;2023-04-28T03:02:24;11.40;;;6.47;;
18899;SDS011;9582;52.018;6.306;2023-04-28T03:04:51;9.30;;;5.43;;
18899;SDS011;9582;52.018;6.306;2023-04-28T03:07:19;7.23;;;5.60;;
18899;SDS011;9582;52.018;6.306;2023-04-28T03:09:45;6.93;;;5.10;;
18899;SDS011;9582;52.018;6.306;2023-04-28T03:12:12;7.00;;;5.57;;
18899;SDS011;9582;52.018;6.306;2023-04-28T03:14:39;8.07;;;5.40;;
18899;SDS011;9582;52.018;6.306;2023-04-28T03:17:05;9.07;;;5.83;;
18899;SDS011;9582;52.018;6.306;2023-04-28T03:19:32;7.87;;;5.40;;
18899;SDS011;9582;52.018;6.306;2023-04-28T03:21:58;7.17;;;5.37;;
18899;SDS011;9582;52.018;6.306;2023-04-28T03:24:26;7.50;;;5.47;;
18899;SDS011;9582;52.018;6.306;2023-04-28T03:26:52;6.70;;;5.13;;
18899;SDS011;9582;52.018;6.306;2023-04-28T03:29:19;6.50;;;5.40;;
18899;SDS011;9582;52.018;6.306;2023-04-28T03:31:48;6.10;;;5.27;;
18899;SDS011;9582;52.018;6.306;2023-04-28T03:34:15;6.77;;;5.63;;
18899;SDS011;9582;52.018;6.306;2023-04-28T03:36:41;7.27;;;5.60;;
18899;SDS011;9582;52.018;6.306;2023-04-28T03:39:19;9.10;;;5.30;;
18899;SDS011;9582;52.018;6.306;2023-04-28T03:41:46;7.67;;;5.90;;
18899;SDS011;9582;52.018;6.306;2023-04-28T03:44:32;7.77;;;5.57;;
18899;SDS011;9582;52.018;6.306;2023-04-28T03:46:58;7.20;;;5.77;;
18899;SDS011;9582;52.018;6.306;2023-04-28T03:49:25;8.57;;;5.70;;
18899;SDS011;9582;52.018;6.306;2023-04-28T03:51:52;8.33;;;5.93;;
18899;SDS011;9582;52.018;6.306;2023-04-28T03:54:19;7.13;;;5.80;;
18899;SDS011;9582;52.018;6.306;2023-04-28T03:56:46;9.37;;;6.07;;
18899;SDS011;9582;52.018;6.306;2023-04-28T03:59:13;6.83;;;5.57;;
18899;SDS011;9582;52.018;6.306;2023-04-28T04:01:41;9.13;;;5.67;;
18899;SDS011;9582;52.018;6.306;2023-04-28T04:04:09;7.80;;;5.83;;
18899;SDS011;9582;52.018;6.306;2023-04-28T04:06:36;8.33;;;6.00;;
18899;SDS011;9582;52.018;6.306;2023-04-28T04:09:02;7.30;;;5.83;;
18899;SDS011;9582;52.018;6.306;2023-04-28T04:11:31;9.27;;;6.27;;
18899;SDS011;9582;52.018;6.306;2023-04-28T04:13:59;8.50;;;6.63;;
18899;SDS011;9582;52.018;6.306;2023-04-28T04:16:25;10.10;;;6.83;;
18899;SDS011;9582;52.018;6.306;2023-04-28T04:18:54;9.07;;;6.90;;
18899;SDS011;9582;52.018;6.306;2023-04-28T04:21:26;8.97;;;6.43;;
18899;SDS011;9582;52.018;6.306;2023-04-28T04:23:53;9.83;;;6.60;;
18899;SDS011;9582;52.018;6.306;2023-04-28T04:26:20;10.03;;;6.70;;
18899;SDS011;9582;52.018;6.306;2023-04-28T04:28:48;7.63;;;6.10;;
18899;SDS011;9582;52.018;6.306;2023-04-28T04:31:16;8.83;;;6.40;;
18899;SDS011;9582;52.018;6.306;2023-04-28T04:33:44;8.13;;;6.13;;
18899;SDS011;9582;52.018;6.306;2023-04-28T04:36:11;8.00;;;6.43;;
18899;SDS011;9582;52.018;6.306;2023-04-28T04:38:38;11.43;;;7.03;;
18899;SDS011;9582;52.018;6.306;2023-04-28T04:41:13;9.77;;;7.10;;
18899;SDS011;9582;52.018;6.306;2023-04-28T04:43:41;8.97;;;6.90;;
18899;SDS011;9582;52.018;6.306;2023-04-28T04:46:07;8.27;;;6.43;;
18899;SDS011;9582;52.018;6.306;2023-04-28T04:48:35;8.90;;;6.97;;
18899;SDS011;9582;52.018;6.306;2023-04-28T04:51:02;11.93;;;7.13;;
18899;SDS011;9582;52.018;6.306;2023-04-28T04:53:28;10.00;;;6.47;;
18899;SDS011;9582;52.018;6.306;2023-04-28T04:55:55;8.97;;;6.90;;
18899;SDS011;9582;52.018;6.306;2023-04-28T04:58:22;9.97;;;7.30;;
18899;SDS011;9582;52.018;6.306;2023-04-28T05:01:07;9.43;;;6.77;;
18899;SDS011;9582;52.018;6.306;2023-04-28T05:03:36;12.97;;;7.53;;
18899;SDS011;9582;52.018;6.306;2023-04-28T05:06:03;10.20;;;7.10;;
18899;SDS011;9582;52.018;6.306;2023-04-28T05:08:42;11.37;;;7.00;;
18899;SDS011;9582;52.018;6.306;2023-04-28T05:11:09;9.87;;;7.30;;
18899;SDS011;9582;52.018;6.306;2023-04-28T05:13:36;10.57;;;7.50;;
18899;SDS011;9582;52.018;6.306;2023-04-28T05:16:05;12.67;;;8.20;;
18899;SDS011;9582;52.018;6.306;2023-04-28T05:18:49;9.53;;;7.53;;
18899;SDS011;9582;52.018;6.306;2023-04-28T05:21:16;9.07;;;7.37;;
18899;SDS011;9582;52.018;6.306;2023-04-28T05:23:42;11.20;;;7.10;;
18899;SDS011;9582;52.018;6.306;2023-04-28T05:26:09;9.03;;;7.20;;
18899;SDS011;9582;52.018;6.306;2023-04-28T05:28:35;10.97;;;7.93;;
18899;SDS011;9582;52.018;6.306;2023-04-28T05:31:02;10.93;;;7.13;;
18899;SDS011;9582;52.018;6.306;2023-04-28T05:33:30;11.47;;;7.60;;
18899;SDS011;9582;52.018;6.306;2023-04-28T05:35:58;10.13;;;8.67;;
18899;SDS011;9582;52.018;6.306;2023-04-28T05:38:25;11.33;;;7.90;;
18899;SDS011;9582;52.018;6.306;2023-04-28T05:40:53;12.60;;;8.60;;
18899;SDS011;9582;52.018;6.306;2023-04-28T05:43:19;13.43;;;8.70;;
18899;SDS011;9582;52.018;6.306;2023-04-28T05:45:47;14.33;;;8.90;;
18899;SDS011;9582;52.018;6.306;2023-04-28T05:48:13;10.63;;;7.90;;
18899;SDS011;9582;52.018;6.306;2023-04-28T05:50:40;13.40;;;9.00;;
18899;SDS011;9582;52.018;6.306;2023-04-28T05:53:09;12.17;;;8.87;;
18899;SDS011;9582;52.018;6.306;2023-04-28T05:55:36;11.53;;;9.20;;
18899;SDS011;9582;52.018;6.306;2023-04-28T05:58:03;14.47;;;9.10;;
18899;SDS011;9582;52.018;6.306;2023-04-28T06:00:31;13.60;;;9.67;;
18899;SDS011;9582;52.018;6.306;2023-04-28T06:02:58;14.43;;;10.27;;
18899;SDS011;9582;52.018;6.306;2023-04-28T06:05:25;17.77;;;10.57;;
18899;SDS011;9582;52.018;6.306;2023-04-28T06:07:53;15.43;;;10.73;;
18899;SDS011;9582;52.018;6.306;2023-04-28T06:10:22;14.80;;;10.53;;
18899;SDS011;9582;52.018;6.306;2023-04-28T06:12:48;14.03;;;10.53;;
18899;SDS011;9582;52.018;6.306;2023-04-28T06:15:15;12.20;;;10.33;;
18899;SDS011;9582;52.018;6.306;2023-04-28T06:17:41;14.37;;;10.53;;
18899;SDS011;9582;52.018;6.306;2023-04-28T06:20:08;13.20;;;10.77;;
18899;SDS011;9582;52.018;6.306;2023-04-28T06:22:38;16.07;;;11.33;;
18899;SDS011;9582;52.018;6.306;2023-04-28T06:25:05;14.27;;;10.77;;
18899;SDS011;9582;52.018;6.306;2023-04-28T06:27:39;13.77;;;11.07;;
18899;SDS011;9582;52.018;6.306;2023-04-28T06:30:05;15.57;;;11.60;;
18899;SDS011;9582;52.018;6.306;2023-04-28T06:32:33;16.90;;;11.10;;
18899;SDS011;9582;52.018;6.306;2023-04-28T06:35:00;17.07;;;12.60;;
18899;SDS011;9582;52.018;6.306;2023-04-28T06:37:27;16.33;;;11.60;;
18899;SDS011;9582;52.018;6.306;2023-04-28T06:39:53;17.37;;;11.43;;
18899;SDS011;9582;52.018;6.306;2023-04-28T06:42:20;14.60;;;11.67;;
18899;SDS011;9582;52.018;6.306;2023-04-28T06:44:57;19.00;;;12.63;;
18899;SDS011;9582;52.018;6.306;2023-04-28T06:47:26;17.30;;;12.37;;
18899;SDS011;9582;52.018;6.306;2023-04-28T06:49:52;14.77;;;11.73;;
18899;SDS011;9582;52.018;6.306;2023-04-28T06:52:19;17.13;;;12.33;;
18899;SDS011;9582;52.018;6.306;2023-04-28T06:54:46;16.97;;;12.90;;
18899;SDS011;9582;52.018;6.306;2023-04-28T06:57:13;17.90;;;13.80;;
18899;SDS011;9582;52.018;6.306;2023-04-28T06:59:39;18.47;;;13.57;;
18899;SDS011;9582;52.018;6.306;2023-04-28T07:02:09;19.20;;;14.17;;
18899;SDS011;9582;52.018;6.306;2023-04-28T07:04:36;21.90;;;14.23;;
18899;SDS011;9582;52.018;6.306;2023-04-28T07:07:02;18.47;;;14.50;;
18899;SDS011;9582;52.018;6.306;2023-04-28T07:09:32;19.27;;;14.57;;
18899;SDS011;9582;52.018;6.306;2023-04-28T07:11:58;18.07;;;14.20;;
18899;SDS011;9582;52.018;6.306;2023-04-28T07:14:25;18.33;;;14.33;;
18899;SDS011;9582;52.018;6.306;2023-04-28T07:16:51;19.13;;;14.80;;
18899;SDS011;9582;52.018;6.306;2023-04-28T07:19:19;17.97;;;13.77;;
18899;SDS011;9582;52.018;6.306;2023-04-28T07:21:45;20.10;;;14.37;;
18899;SDS011;9582;52.018;6.306;2023-04-28T07:24:12;18.93;;;14.23;;
18899;SDS011;9582;52.018;6.306;2023-04-28T07:26:38;19.20;;;14.47;;
18899;SDS011;9582;52.018;6.306;2023-04-28T07:29:05;19.07;;;14.70;;
18899;SDS011;9582;52.018;6.306;2023-04-28T07:31:32;18.77;;;14.73;;
18899;SDS011;9582;52.018;6.306;2023-04-28T07:33:59;18.57;;;14.30;;
18899;SDS011;9582;52.018;6.306;2023-04-28T07:36:27;20.63;;;15.17;;
18899;SDS011;9582;52.018;6.306;2023-04-28T07:38:54;19.33;;;14.77;;
18899;SDS011;9582;52.018;6.306;2023-04-28T07:41:20;19.03;;;14.77;;
18899;SDS011;9582;52.018;6.306;2023-04-28T07:43:47;17.90;;;14.17;;
18899;SDS011;9582;52.018;6.306;2023-04-28T07:46:14;16.67;;;14.13;;
18899;SDS011;9582;52.018;6.306;2023-04-28T07:48:41;17.87;;;13.80;;
18899;SDS011;9582;52.018;6.306;2023-04-28T07:51:07;21.57;;;14.40;;
18899;SDS011;9582;52.018;6.306;2023-04-28T07:53:35;18.50;;;13.73;;
18899;SDS011;9582;52.018;6.306;2023-04-28T07:56:02;18.23;;;14.23;;
18899;SDS011;9582;52.018;6.306;2023-04-28T07:58:28;19.50;;;13.10;;
18899;SDS011;9582;52.018;6.306;2023-04-28T08:00:56;18.53;;;13.93;;
18899;SDS011;9582;52.018;6.306;2023-04-28T08:03:22;16.50;;;13.27;;
18899;SDS011;9582;52.018;6.306;2023-04-28T08:05:49;17.90;;;14.10;;
18899;SDS011;9582;52.018;6.306;2023-04-28T08:08:15;19.50;;;14.33;;
18899;SDS011;9582;52.018;6.306;2023-04-28T08:10:43;20.97;;;14.53;;
18899;SDS011;9582;52.018;6.306;2023-04-28T08:13:10;19.43;;;15.00;;
18899;SDS011;9582;52.018;6.306;2023-04-28T08:15:37;17.20;;;13.33;;
18899;SDS011;9582;52.018;6.306;2023-04-28T08:18:03;17.10;;;13.73;;
18899;SDS011;9582;52.018;6.306;2023-04-28T08:20:29;17.27;;;13.90;;
18899;SDS011;9582;52.018;6.306;2023-04-28T08:22:56;15.07;;;12.63;;
18899;SDS011;9582;52.018;6.306;2023-04-28T08:25:23;16.67;;;13.40;;
18899;SDS011;9582;52.018;6.306;2023-04-28T08:27:51;17.63;;;13.80;;
18899;SDS011;9582;52.018;6.306;2023-04-28T08:30:19;18.77;;;12.97;;
18899;SDS011;9582;52.018;6.306;2023-04-28T08:32:46;16.80;;;13.33;;
18899;SDS011;9582;52.018;6.306;2023-04-28T08:35:13;17.23;;;14.10;;
18899;SDS011;9582;52.018;6.306;2023-04-28T08:37:39;18.00;;;14.47;;
18899;SDS011;9582;52.018;6.306;2023-04-28T08:40:07;19.90;;;14.63;;
18899;SDS011;9582;52.018;6.306;2023-04-28T08:42:34;19.37;;;14.77;;
18899;SDS011;9582;52.018;6.306;2023-04-28T08:45:04;18.53;;;14.90;;
18899;SDS011;9582;52.018;6.306;2023-04-28T08:47:32;21.37;;;14.87;;
18899;SDS011;9582;52.018;6.306;2023-04-28T08:50:01;15.03;;;11.87;;
18899;SDS011;9582;52.018;6.306;2023-04-28T08:52:30;18.40;;;14.87;;
18899;SDS011;9582;52.018;6.306;2023-04-28T08:54:56;18.40;;;14.07;;
18899;SDS011;9582;52.018;6.306;2023-04-28T08:57:24;16.47;;;13.07;;
18899;SDS011;9582;52.018;6.306;2023-04-28T08:59:52;17.87;;;13.37;;
18899;SDS011;9582;52.018;6.306;2023-04-28T09:02:20;17.13;;;14.43;;
18899;SDS011;9582;52.018;6.306;2023-04-28T09:04:46;18.30;;;14.03;;
18899;SDS011;9582;52.018;6.306;2023-04-28T09:07:13;16.13;;;13.85;;
18899;SDS011;9582;52.018;6.306;2023-04-28T09:09:39;15.70;;;13.05;;
18899;SDS011;9582;52.018;6.306;2023-04-28T09:12:06;16.48;;;13.88;;
18899;SDS011;9582;52.018;6.306;2023-04-28T09:14:33;14.27;;;12.68;;
18899;SDS011;9582;52.018;6.306;2023-04-28T09:17:01;16.02;;;14.27;;
18899;SDS011;9582;52.018;6.306;2023-04-28T09:19:32;16.98;;;13.25;;
18899;SDS011;9582;52.018;6.306;2023-04-28T09:22:00;15.57;;;13.60;;
18899;SDS011;9582;52.018;6.306;2023-04-28T09:24:28;17.17;;;14.50;;
18899;SDS011;9582;52.018;6.306;2023-04-28T09:26:55;15.40;;;13.80;;
18899;SDS011;9582;52.018;6.306;2023-04-28T09:29:22;16.33;;;13.35;;
18899;SDS011;9582;52.018;6.306;2023-04-28T09:31:49;17.08;;;14.65;;
18899;SDS011;9582;52.018;6.306;2023-04-28T09:34:15;17.48;;;13.68;;
18899;SDS011;9582;52.018;6.306;2023-04-28T09:36:43;17.98;;;15.75;;
18899;SDS011;9582;52.018;6.306;2023-04-28T09:39:10;16.80;;;13.68;;
18899;SDS011;9582;52.018;6.306;2023-04-28T09:41:37;16.90;;;14.50;;
18899;SDS011;9582;52.018;6.306;2023-04-28T09:44:14;17.20;;;15.38;;
18899;SDS011;9582;52.018;6.306;2023-04-28T09:46:43;18.45;;;14.93;;
18899;SDS011;9582;52.018;6.306;2023-04-28T09:49:13;17.25;;;15.40;;
18899;SDS011;9582;52.018;6.306;2023-04-28T09:51:40;17.63;;;15.73;;
18899;SDS011;9582;52.018;6.306;2023-04-28T09:54:08;17.58;;;15.43;;
18899;SDS011;9582;52.018;6.306;2023-04-28T09:56:36;17.67;;;14.95;;
18899;SDS011;9582;52.018;6.306;2023-04-28T09:59:02;18.38;;;15.80;;
18899;SDS011;9582;52.018;6.306;2023-04-28T10:01:31;21.08;;;18.02;;
18899;SDS011;9582;52.018;6.306;2023-04-28T10:04:03;19.42;;;17.42;;
18899;SDS011;9582;52.018;6.306;2023-04-28T10:06:30;23.58;;;18.58;;
18899;SDS011;9582;52.018;6.306;2023-04-28T10:08:59;23.55;;;19.70;;
18899;SDS011;9582;52.018;6.306;2023-04-28T10:11:28;20.20;;;17.88;;
18899;SDS011;9582;52.018;6.306;2023-04-28T10:13:54;19.88;;;17.23;;
18899;SDS011;9582;52.018;6.306;2023-04-28T10:16:21;18.90;;;16.88;;
18899;SDS011;9582;52.018;6.306;2023-04-28T10:18:48;18.90;;;16.00;;
18899;SDS011;9582;52.018;6.306;2023-04-28T10:21:17;19.67;;;17.58;;
18899;SDS011;9582;52.018;6.306;2023-04-28T10:23:59;20.60;;;17.08;;
18899;SDS011;9582;52.018;6.306;2023-04-28T10:27:02;20.40;;;18.38;;
18899;SDS011;9582;52.018;6.306;2023-04-28T10:29:32;22.30;;;19.33;;
18899;SDS011;9582;52.018;6.306;2023-04-28T10:38:02;19.77;;;17.80;;
18899;SDS011;9582;52.018;6.306;2023-04-28T10:40:30;21.05;;;17.10;;
18899;SDS011;9582;52.018;6.306;2023-04-28T10:42:58;21.95;;;17.15;;
18899;SDS011;9582;52.018;6.306;2023-04-28T10:51:29;16.02;;;14.32;;
18899;SDS011;9582;52.018;6.306;2023-04-28T10:59:44;16.65;;;15.02;;
18899;SDS011;9582;52.018;6.306;2023-04-28T11:05:14;17.27;;;15.07;;
18899;SDS011;9582;52.018;6.306;2023-04-28T11:13:50;16.02;;;14.43;;
18899;SDS011;9582;52.018;6.306;2023-04-28T11:16:19;17.75;;;14.40;;
18899;SDS011;9582;52.018;6.306;2023-04-28T11:18:48;17.25;;;15.18;;
18899;SDS011;9582;52.018;6.306;2023-04-28T11:21:28;16.98;;;15.00;;
18899;SDS011;9582;52.018;6.306;2023-04-28T11:23:56;18.27;;;16.38;;
18899;SDS011;9582;52.018;6.306;2023-04-28T11:26:23;22.77;;;18.20;;
18899;SDS011;9582;52.018;6.306;2023-04-28T11:28:51;21.77;;;17.90;;
18899;SDS011;9582;52.018;6.306;2023-04-28T11:31:21;18.80;;;16.60;;
18899;SDS011;9582;52.018;6.306;2023-04-28T11:33:50;19.42;;;17.52;;
18899;SDS011;9582;52.018;6.306;2023-04-28T11:36:27;23.38;;;19.42;;
18899;SDS011;9582;52.018;6.306;2023-04-28T11:38:57;22.20;;;19.10;;
18899;SDS011;9582;52.018;6.306;2023-04-28T11:41:24;23.05;;;20.63;;
18899;SDS011;9582;52.018;6.306;2023-04-28T11:43:50;21.40;;;19.20;;
18899;SDS011;9582;52.018;6.306;2023-04-28T11:46:18;22.05;;;19.75;;
18899;SDS011;9582;52.018;6.306;2023-04-28T11:48:47;21.85;;;18.80;;
18899;SDS011;9582;52.018;6.306;2023-04-28T11:51:30;22.60;;;19.88;;
18899;SDS011;9582;52.018;6.306;2023-04-28T11:54:02;22.85;;;18.70;;
18899;SDS011;9582;52.018;6.306;2023-04-28T11:56:30;21.20;;;19.02;;
18899;SDS011;9582;52.018;6.306;2023-04-28T11:59:02;22.10;;;19.75;;
18899;SDS011;9582;52.018;6.306;2023-04-28T12:01:32;22.77;;;19.95;;
18899;SDS011;9582;52.018;6.306;2023-04-28T12:04:02;20.77;;;18.55;;
18899;SDS011;9582;52.018;6.306;2023-04-28T12:06:29;22.98;;;20.13;;
18899;SDS011;9582;52.018;6.306;2023-04-28T12:08:56;24.55;;;20.50;;
18899;SDS011;9582;52.018;6.306;2023-04-28T12:11:28;21.63;;;19.38;;
18899;SDS011;9582;52.018;6.306;2023-04-28T12:14:01;20.35;;;17.95;;
18899;SDS011;9582;52.018;6.306;2023-04-28T12:16:35;21.35;;;19.05;;
18899;SDS011;9582;52.018;6.306;2023-04-28T12:19:05;22.13;;;18.02;;
18899;SDS011;9582;52.018;6.306;2023-04-28T12:21:35;18.02;;;16.23;;
18899;SDS011;9582;52.018;6.306;2023-04-28T12:24:11;19.10;;;16.80;;
18899;SDS011;9582;52.018;6.306;2023-04-28T12:26:39;17.42;;;15.27;;
18899;SDS011;9582;52.018;6.306;2023-04-28T12:29:06;16.70;;;15.00;;
18899;SDS011;9582;52.018;6.306;2023-04-28T12:31:46;14.75;;;13.25;;
18899;SDS011;9582;52.018;6.306;2023-04-28T12:34:14;17.02;;;15.20;;
18899;SDS011;9582;52.018;6.306;2023-04-28T12:36:41;14.57;;;13.15;;
18899;SDS011;9582;52.018;6.306;2023-04-28T12:39:12;11.25;;;10.07;;
18899;SDS011;9582;52.018;6.306;2023-04-28T12:41:40;12.20;;;10.90;;
18899;SDS011;9582;52.018;6.306;2023-04-28T12:44:07;10.13;;;9.13;;
18899;SDS011;9582;52.018;6.306;2023-04-28T12:46:33;10.63;;;9.60;;
18899;SDS011;9582;52.018;6.306;2023-04-28T12:49:01;11.35;;;10.15;;
18899;SDS011;9582;52.018;6.306;2023-04-28T12:51:29;11.68;;;10.57;;
18899;SDS011;9582;52.018;6.306;2023-04-28T12:53:55;12.45;;;11.25;;
18899;SDS011;9582;52.018;6.306;2023-04-28T12:56:22;12.93;;;11.60;;
18899;SDS011;9582;52.018;6.306;2023-04-28T12:58:48;16.00;;;13.50;;
18899;SDS011;9582;52.018;6.306;2023-04-28T13:01:15;16.35;;;13.90;;
18899;SDS011;9582;52.018;6.306;2023-04-28T13:03:41;17.05;;;15.07;;
18899;SDS011;9582;52.018;6.306;2023-04-28T13:06:08;16.65;;;13.77;;
18899;SDS011;9582;52.018;6.306;2023-04-28T13:08:36;15.48;;;13.13;;
18899;SDS011;9582;52.018;6.306;2023-04-28T13:11:03;14.45;;;11.95;;
18899;SDS011;9582;52.018;6.306;2023-04-28T13:13:30;15.77;;;13.80;;
18899;SDS011;9582;52.018;6.306;2023-04-28T13:15:56;15.90;;;13.35;;
18899;SDS011;9582;52.018;6.306;2023-04-28T13:18:23;14.75;;;11.85;;
18899;SDS011;9582;52.018;6.306;2023-04-28T13:20:50;18.02;;;13.52;;
18899;SDS011;9582;52.018;6.306;2023-04-28T13:23:17;14.75;;;13.15;;
18899;SDS011;9582;52.018;6.306;2023-04-28T13:25:45;14.18;;;12.20;;
18899;SDS011;9582;52.018;6.306;2023-04-28T13:28:11;16.45;;;13.45;;
18899;SDS011;9582;52.018;6.306;2023-04-28T13:30:38;14.80;;;11.85;;
18899;SDS011;9582;52.018;6.306;2023-04-28T13:33:05;12.77;;;10.95;;
18899;SDS011;9582;52.018;6.306;2023-04-28T13:35:31;13.23;;;11.55;;
18899;SDS011;9582;52.018;6.306;2023-04-28T13:37:58;13.45;;;10.98;;
18899;SDS011;9582;52.018;6.306;2023-04-28T13:40:26;11.40;;;9.48;;
18899;SDS011;9582;52.018;6.306;2023-04-28T13:42:54;12.38;;;9.70;;
18899;SDS011;9582;52.018;6.306;2023-04-28T13:45:21;9.65;;;7.85;;
18899;SDS011;9582;52.018;6.306;2023-04-28T13:47:47;10.13;;;8.77;;
18899;SDS011;9582;52.018;6.306;2023-04-28T13:50:15;11.82;;;10.32;;
18899;SDS011;9582;52.018;6.306;2023-04-28T13:52:41;11.95;;;10.68;;
18899;SDS011;9582;52.018;6.306;2023-04-28T13:55:08;12.20;;;9.73;;
18899;SDS011;9582;52.018;6.306;2023-04-28T13:57:35;10.95;;;8.85;;
18899;SDS011;9582;52.018;6.306;2023-04-28T14:00:03;11.50;;;9.18;;
18899;SDS011;9582;52.018;6.306;2023-04-28T14:02:32;11.57;;;8.98;;
18899;SDS011;9582;52.018;6.306;2023-04-28T14:04:59;7.70;;;6.90;;
18899;SDS011;9582;52.018;6.306;2023-04-28T14:07:25;8.30;;;6.28;;
18899;SDS011;9582;52.018;6.306;2023-04-28T14:09:53;8.48;;;6.00;;
18899;SDS011;9582;52.018;6.306;2023-04-28T14:12:19;7.95;;;6.88;;
18899;SDS011;9582;52.018;6.306;2023-04-28T14:14:46;9.02;;;6.38;;
18899;SDS011;9582;52.018;6.306;2023-04-28T14:17:14;8.23;;;7.03;;
18899;SDS011;9582;52.018;6.306;2023-04-28T14:19:40;8.20;;;7.35;;
18899;SDS011;9582;52.018;6.306;2023-04-28T14:22:07;8.10;;;7.30;;
18899;SDS011;9582;52.018;6.306;2023-04-28T14:24:34;7.75;;;6.95;;
18899;SDS011;9582;52.018;6.306;2023-04-28T14:27:01;7.30;;;6.38;;
18899;SDS011;9582;52.018;6.306;2023-04-28T14:29:28;9.35;;;6.60;;
18899;SDS011;9582;52.018;6.306;2023-04-28T14:31:55;5.28;;;4.45;;
18899;SDS011;9582;52.018;6.306;2023-04-28T14:34:23;7.25;;;6.32;;
18899;SDS011;9582;52.018;6.306;2023-04-28T14:36:49;7.15;;;5.47;;
18899;SDS011;9582;52.018;6.306;2023-04-28T14:39:17;7.57;;;4.90;;
18899;SDS011;9582;52.018;6.306;2023-04-28T14:41:43;6.32;;;5.00;;
18899;SDS011;9582;52.018;6.306;2023-04-28T14:44:10;6.85;;;5.35;;
18899;SDS011;9582;52.018;6.306;2023-04-28T14:46:36;6.85;;;5.30;;
18899;SDS011;9582;52.018;6.306;2023-04-28T14:49:03;6.55;;;5.53;;
18899;SDS011;9582;52.018;6.306;2023-04-28T14:51:31;7.85;;;5.47;;
18899;SDS011;9582;52.018;6.306;2023-04-28T14:53:57;6.00;;;4.60;;
18899;SDS011;9582;52.018;6.306;2023-04-28T14:56:24;6.65;;;5.95;;
18899;SDS011;9582;52.018;6.306;2023-04-28T14:58:50;6.00;;;5.38;;
18899;SDS011;9582;52.018;6.306;2023-04-28T15:01:18;6.63;;;5.38;;
18899;SDS011;9582;52.018;6.306;2023-04-28T15:03:44;5.97;;;5.38;;
18899;SDS011;9582;52.018;6.306;2023-04-28T15:06:11;5.97;;;5.10;;
18899;SDS011;9582;52.018;6.306;2023-04-28T15:08:39;6.70;;;5.70;;
18899;SDS011;9582;52.018;6.306;2023-04-28T15:11:05;5.47;;;4.88;;
18899;SDS011;9582;52.018;6.306;2023-04-28T15:13:32;4.57;;;3.75;;
18899;SDS011;9582;52.018;6.306;2023-04-28T15:15:59;5.28;;;4.32;;
18899;SDS011;9582;52.018;6.306;2023-04-28T15:18:26;7.85;;;4.50;;